createdAt,value
2022-12-22T00:01:31.571Z,5.47
2022-12-22T00:04:24.620Z,5.47
2022-12-22T00:07:10.044Z,5.45
2022-12-22T00:09:59.963Z,5.45
2022-12-22T00:12:45.291Z,5.41
2022-12-22T00:15:34.830Z,5.42
2022-12-22T00:18:20.098Z,5.42
2022-12-22T00:21:05.347Z,5.47
2022-12-22T00:23:50.724Z,5.52
2022-12-22T00:26:36.008Z,5.53
2022-12-22T00:29:21.455Z,5.51
2022-12-22T00:32:06.727Z,5.49
2022-12-22T00:34:56.095Z,5.46
2022-12-22T00:37:47.943Z,5.48
2022-12-22T00:40:36.894Z,5.51
2022-12-22T00:43:22.166Z,5.54
2022-12-22T00:46:07.365Z,5.56
2022-12-22T00:48:52.828Z,5.49
2022-12-22T00:51:38.200Z,5.54
2022-12-22T00:54:27.353Z,5.23
2022-12-22T00:57:12.669Z,5.01
2022-12-22T01:00:00.460Z,5.07
2022-12-22T01:02:45.872Z,5.22
2022-12-22T01:05:33.511Z,5.32
2022-12-22T01:08:18.833Z,5.36
2022-12-22T01:11:04.207Z,5.40
2022-12-22T01:13:49.521Z,5.48
2022-12-22T01:16:35.056Z,5.45
2022-12-22T01:19:23.250Z,5.49
2022-12-22T01:22:08.512Z,5.53
2022-12-22T01:24:53.846Z,5.57
2022-12-22T01:27:42.150Z,5.48
2022-12-22T01:30:30.614Z,5.50
2022-12-22T01:33:17.109Z,5.49
2022-12-22T01:36:02.262Z,5.54
2022-12-22T01:38:47.851Z,5.49
2022-12-22T01:41:33.921Z,5.40
2022-12-22T01:44:19.058Z,5.26
2022-12-22T01:47:04.794Z,5.17
2022-12-22T01:49:50.116Z,5.21
2022-12-22T01:52:35.439Z,5.22
2022-12-22T01:55:26.560Z,5.28
2022-12-22T01:58:14.217Z,5.27
2022-12-22T02:00:59.568Z,5.25
2022-12-22T02:03:44.999Z,5.18
2022-12-22T02:06:45.777Z,5.22
2022-12-22T02:09:51.369Z,5.16
2022-12-22T02:12:49.098Z,5.22
2022-12-22T02:15:53.192Z,5.32
2022-12-22T02:18:42.606Z,5.43
2022-12-22T02:21:31.882Z,5.42
2022-12-22T02:24:26.149Z,5.50
2022-12-22T02:27:11.425Z,5.53
2022-12-22T02:29:59.749Z,5.59
2022-12-22T02:32:45.159Z,5.66
2022-12-22T02:35:31.701Z,5.70
2022-12-22T02:38:29.026Z,5.76
2022-12-22T02:41:17.220Z,5.79
2022-12-22T02:44:19.410Z,5.61
2022-12-22T02:47:11.217Z,5.64
2022-12-22T02:50:12.402Z,5.66
2022-12-22T02:52:58.449Z,5.72
2022-12-22T02:55:46.416Z,5.77
2022-12-22T02:58:32.311Z,5.74
2022-12-22T03:01:20.597Z,5.80
2022-12-22T03:04:06.085Z,5.83
2022-12-22T03:06:51.490Z,5.83
2022-12-22T03:09:37.963Z,5.81
2022-12-22T03:12:25.436Z,5.88
2022-12-22T03:15:13.084Z,5.90
2022-12-22T03:17:58.453Z,5.90
2022-12-22T03:20:43.546Z,5.94
2022-12-22T03:23:33.322Z,5.98
2022-12-22T03:26:00.277Z,5.97
2022-12-22T03:28:29.538Z,5.97
2022-12-22T03:31:00.524Z,5.98
2022-12-22T03:33:29.636Z,6.02
2022-12-22T03:35:56.433Z,6.04
2022-12-22T03:38:27.170Z,6.06
2022-12-22T03:40:56.905Z,6.06
2022-12-22T03:43:42.243Z,6.02
2022-12-22T03:46:30.797Z,5.96
2022-12-22T03:49:11.292Z,5.93
2022-12-22T03:51:42.298Z,5.88
2022-12-22T03:54:09.598Z,5.87
2022-12-22T03:56:36.495Z,5.85
2022-12-22T03:59:05.788Z,5.80
2022-12-22T04:01:41.197Z,5.76
2022-12-22T04:04:08.031Z,5.78
2022-12-22T04:06:34.709Z,5.76
2022-12-22T04:09:01.294Z,5.70
2022-12-22T04:11:46.458Z,5.69
2022-12-22T04:14:18.448Z,5.69
2022-12-22T04:16:45.071Z,5.71
2022-12-22T04:19:11.681Z,5.71
2022-12-22T04:21:40.821Z,5.72
2022-12-22T04:24:10.818Z,5.77
2022-12-22T04:26:40.087Z,5.72
2022-12-22T04:29:06.687Z,5.59
2022-12-22T04:31:35.705Z,5.57
2022-12-22T04:34:02.398Z,5.59
2022-12-22T04:36:28.976Z,5.60
2022-12-22T04:38:58.593Z,5.61
2022-12-22T04:41:25.143Z,5.62
2022-12-22T04:43:51.859Z,5.65
2022-12-22T04:46:18.479Z,5.68
2022-12-22T04:48:45.167Z,5.73
2022-12-22T04:51:16.477Z,5.77
2022-12-22T04:53:43.266Z,5.78
2022-12-22T04:56:12.314Z,5.82
2022-12-22T04:58:41.605Z,5.82
2022-12-22T05:01:16.856Z,5.85
2022-12-22T05:03:46.145Z,5.87
2022-12-22T05:06:13.158Z,5.92
2022-12-22T05:08:39.772Z,5.98
2022-12-22T05:11:08.889Z,5.99
2022-12-22T05:13:38.124Z,6.00
2022-12-22T05:16:06.681Z,6.01
2022-12-22T05:18:33.932Z,6.00
2022-12-22T05:21:07.603Z,5.99
2022-12-22T05:23:34.206Z,6.00
2022-12-22T05:26:03.331Z,6.02
2022-12-22T05:28:30.055Z,6.05
2022-12-22T05:30:56.652Z,6.01
2022-12-22T05:33:25.729Z,5.98
2022-12-22T05:35:52.599Z,5.95
2022-12-22T05:38:21.037Z,5.94
2022-12-22T05:40:48.333Z,5.98
2022-12-22T05:43:15.036Z,5.97
2022-12-22T05:45:44.159Z,5.96
2022-12-22T05:48:18.898Z,5.96
2022-12-22T05:50:49.087Z,5.96
2022-12-22T05:53:18.206Z,5.97
2022-12-22T05:55:44.852Z,5.98
2022-12-22T05:58:11.499Z,5.93
2022-12-22T06:00:43.165Z,5.94
2022-12-22T06:03:12.667Z,5.92
2022-12-22T06:05:39.383Z,5.92
2022-12-22T06:08:06.196Z,5.90
2022-12-22T06:10:35.963Z,5.91
2022-12-22T06:13:05.379Z,5.92
2022-12-22T06:15:34.339Z,5.86
2022-12-22T06:18:01.065Z,5.87
2022-12-22T06:20:30.317Z,5.86
2022-12-22T06:27:03.359Z,5.89
2022-12-22T06:32:43.385Z,5.43
2022-12-22T06:35:10.570Z,5.42
2022-12-22T06:37:39.616Z,5.49
2022-12-22T06:40:07.213Z,5.57
2022-12-22T06:45:36.712Z,5.66
2022-12-22T06:48:08.404Z,5.68
2022-12-22T06:50:40.446Z,5.72
2022-12-22T06:53:09.590Z,5.72
2022-12-22T06:55:36.766Z,5.42
2022-12-22T06:58:03.609Z,5.30
2022-12-22T07:00:30.321Z,5.27
2022-12-22T07:02:57.290Z,5.14
2022-12-22T07:05:26.742Z,5.09
2022-12-22T07:07:53.430Z,5.17
2022-12-22T07:10:43.384Z,5.29
2022-12-22T07:13:24.233Z,5.41
2022-12-22T07:15:59.587Z,5.51
2022-12-22T07:18:28.678Z,5.56
2022-12-22T07:20:57.774Z,5.41
2022-12-22T07:23:27.052Z,5.50
2022-12-22T07:25:53.766Z,5.61
2022-12-22T07:28:21.134Z,5.72
2022-12-22T07:30:51.204Z,5.80
2022-12-22T07:33:18.004Z,5.87
2022-12-22T07:35:46.925Z,5.93
2022-12-22T07:38:13.724Z,5.96
2022-12-22T07:40:42.476Z,5.88
2022-12-22T07:43:09.658Z,5.87
2022-12-22T07:45:36.732Z,5.94
2022-12-22T07:48:24.109Z,5.99
2022-12-22T07:50:51.229Z,6.03
2022-12-22T07:53:17.806Z,6.07
2022-12-22T07:55:44.456Z,6.10
2022-12-22T07:58:13.336Z,6.06
2022-12-22T08:00:42.595Z,6.16
2022-12-22T08:03:09.379Z,6.20
2022-12-22T08:05:37.280Z,6.24
2022-12-22T08:08:03.989Z,6.22
2022-12-22T08:10:33.125Z,6.24
2022-12-22T08:12:59.864Z,6.16
2022-12-22T08:15:26.504Z,6.23
2022-12-22T08:17:53.181Z,6.32
2022-12-22T08:20:19.779Z,6.41
2022-12-22T08:22:47.553Z,6.49
2022-12-22T08:25:16.847Z,6.60
2022-12-22T08:27:44.830Z,6.70
2022-12-22T08:30:11.615Z,6.82
2022-12-22T08:32:39.752Z,6.89
2022-12-22T08:35:06.747Z,6.96
2022-12-22T08:37:41.395Z,6.88
2022-12-22T08:40:37.742Z,6.77
2022-12-22T08:43:07.816Z,6.62
2022-12-22T08:45:36.951Z,6.62
2022-12-22T08:48:06.053Z,6.47
2022-12-22T08:50:35.206Z,6.38
2022-12-22T08:53:05.528Z,6.41
2022-12-22T08:55:32.227Z,6.47
2022-12-22T08:57:58.881Z,6.55
2022-12-22T09:00:25.641Z,6.58
2022-12-22T09:02:52.587Z,6.60
2022-12-22T09:05:19.484Z,6.48
2022-12-22T09:07:49.182Z,6.32
2022-12-22T09:10:18.170Z,6.30
2022-12-22T09:12:45.029Z,6.07
2022-12-22T09:15:14.791Z,5.86
2022-12-22T09:17:44.544Z,5.73
2022-12-22T09:20:12.308Z,5.61
2022-12-22T09:22:38.921Z,5.78
2022-12-22T09:25:08.170Z,5.77
2022-12-22T09:27:34.793Z,5.84
2022-12-22T09:30:01.484Z,5.95
2022-12-22T09:32:28.138Z,5.96
2022-12-22T09:34:54.768Z,6.07
2022-12-22T09:37:21.432Z,6.17
2022-12-22T09:39:48.280Z,6.28
2022-12-22T09:42:15.963Z,6.35
2022-12-22T09:44:46.056Z,6.36
2022-12-22T09:47:15.223Z,6.33
2022-12-22T09:49:41.785Z,6.38
2022-12-22T09:52:18.279Z,6.30
2022-12-22T09:54:45.044Z,6.14
2022-12-22T09:57:14.110Z,6.15
2022-12-22T09:59:40.818Z,6.18
2022-12-22T10:02:16.005Z,6.08
2022-12-22T10:05:08.146Z,6.00
2022-12-22T10:07:35.992Z,5.96
2022-12-22T10:10:05.871Z,6.01
2022-12-22T10:12:32.537Z,6.07
2022-12-22T10:14:59.120Z,6.08
2022-12-22T10:17:32.802Z,6.13
2022-12-22T10:20:17.712Z,6.27
2022-12-22T10:22:48.874Z,6.40
2022-12-22T10:25:52.435Z,6.57
2022-12-22T10:28:23.748Z,6.63
2022-12-22T10:31:13.212Z,6.79
2022-12-22T10:33:47.072Z,6.94
2022-12-22T10:36:37.257Z,6.93
2022-12-22T10:39:04.122Z,6.89
2022-12-22T10:41:35.184Z,6.93
2022-12-22T10:44:01.901Z,7.03
2022-12-22T10:46:47.728Z,7.02
2022-12-22T10:49:24.189Z,6.84
2022-12-22T10:52:11.099Z,6.62
2022-12-22T10:54:44.290Z,6.42
2022-12-22T10:57:13.120Z,6.40
2022-12-22T10:59:51.890Z,6.83
2022-12-22T11:02:22.174Z,7.38
2022-12-22T11:04:54.663Z,7.88
2022-12-22T11:07:29.223Z,8.21
2022-12-22T11:09:56.307Z,8.55
2022-12-22T11:12:34.180Z,8.92
2022-12-22T11:15:12.034Z,9.15
2022-12-22T11:17:44.781Z,9.31
2022-12-22T11:20:11.485Z,9.25
2022-12-22T11:22:42.004Z,8.97
2022-12-22T11:25:30.464Z,9.03
2022-12-22T11:27:57.269Z,9.44
2022-12-22T11:30:26.609Z,9.95
2022-12-22T11:33:00.681Z,9.96
2022-12-22T11:35:35.218Z,9.77
2022-12-22T11:38:24.258Z,9.39
2022-12-22T11:41:19.473Z,8.75
2022-12-22T11:43:57.644Z,8.75
2022-12-22T11:46:35.095Z,8.90
2022-12-22T11:49:20.399Z,8.86
2022-12-22T11:51:56.144Z,8.82
2022-12-22T11:54:43.994Z,8.71
2022-12-22T11:57:19.566Z,8.59
2022-12-22T12:00:05.142Z,8.51
2022-12-22T12:02:46.911Z,8.42
2022-12-22T12:05:19.469Z,8.39
2022-12-22T12:07:48.824Z,8.42
2022-12-22T12:10:15.453Z,8.32
2022-12-22T12:12:45.312Z,8.28
2022-12-22T12:15:30.331Z,8.25
2022-12-22T12:18:12.001Z,8.07
2022-12-22T12:20:41.607Z,7.95
2022-12-22T12:23:19.433Z,7.88
2022-12-22T12:25:55.215Z,7.68
2022-12-22T12:28:25.231Z,7.62
2022-12-22T12:30:55.671Z,7.46
2022-12-22T12:33:31.415Z,7.59
2022-12-22T12:36:33.360Z,7.77
2022-12-22T12:39:17.378Z,7.91
2022-12-22T12:41:59.198Z,7.87
2022-12-22T12:44:30.735Z,7.94
2022-12-22T12:47:02.618Z,7.94
2022-12-22T12:49:34.539Z,7.78
2022-12-22T12:52:10.496Z,7.82
2022-12-22T12:54:43.760Z,7.83
2022-12-22T12:57:31.032Z,7.93
2022-12-22T12:59:58.473Z,8.07
2022-12-22T13:02:27.988Z,8.15
2022-12-22T13:05:13.205Z,8.21
2022-12-22T13:07:59.031Z,8.25
2022-12-22T13:10:25.790Z,8.26
2022-12-22T13:12:53.381Z,8.25
2022-12-22T13:15:34.818Z,8.25
2022-12-22T13:18:05.469Z,8.21
2022-12-22T13:20:33.199Z,8.10
2022-12-22T13:23:02.635Z,7.96
2022-12-22T13:25:41.624Z,7.92
2022-12-22T13:28:13.947Z,7.89
2022-12-22T13:30:40.703Z,7.74
2022-12-22T13:33:09.870Z,7.68
2022-12-22T13:35:47.080Z,7.17
2022-12-22T13:38:31.579Z,6.94
2022-12-22T13:41:05.568Z,6.79
2022-12-22T13:43:32.320Z,6.74
2022-12-22T13:46:00.339Z,6.76
2022-12-22T13:48:43.304Z,6.65
2022-12-22T13:51:15.109Z,6.67
2022-12-22T13:54:08.953Z,6.66
2022-12-22T13:56:40.946Z,6.68
2022-12-22T13:59:16.969Z,6.65
2022-12-22T14:02:05.567Z,6.79
2022-12-22T14:04:32.802Z,6.82
2022-12-22T14:07:11.196Z,6.80
2022-12-22T14:09:37.851Z,6.67
2022-12-22T14:12:08.408Z,6.41
2022-12-22T14:14:44.344Z,6.47
2022-12-22T14:17:24.075Z,6.43
2022-12-22T14:19:55.705Z,6.19
2022-12-22T14:22:29.455Z,6.24
2022-12-22T14:25:01.786Z,6.40
2022-12-22T14:27:43.039Z,6.47
2022-12-22T14:30:20.956Z,6.35
2022-12-22T14:32:55.876Z,6.19
2022-12-22T14:35:24.508Z,6.16
2022-12-22T14:37:51.349Z,6.15
2022-12-22T14:40:37.297Z,5.84
2022-12-22T14:43:07.578Z,5.82
2022-12-22T14:45:34.315Z,5.90
2022-12-22T14:48:03.704Z,5.94
2022-12-22T14:50:38.862Z,5.83
2022-12-22T14:53:08.144Z,5.60
2022-12-22T14:55:40.366Z,5.44
2022-12-22T14:58:10.001Z,5.40
2022-12-22T15:00:36.818Z,5.29
2022-12-22T15:03:08.269Z,5.13
2022-12-22T15:05:40.936Z,4.91
2022-12-22T15:08:33.284Z,4.79
2022-12-22T15:11:03.007Z,4.69
2022-12-22T15:13:29.794Z,4.74
2022-12-22T15:15:59.391Z,4.81
2022-12-22T15:18:26.846Z,4.71
2022-12-22T15:20:58.893Z,4.73
2022-12-22T15:23:25.496Z,4.63
2022-12-22T15:25:52.179Z,4.56
2022-12-22T15:28:18.774Z,4.51
2022-12-22T15:30:45.866Z,4.46
2022-12-22T15:33:16.944Z,4.44
2022-12-22T15:35:46.541Z,4.44
2022-12-22T15:38:17.675Z,4.50
2022-12-22T15:40:46.356Z,4.58
2022-12-22T15:43:29.229Z,4.56
2022-12-22T15:46:04.695Z,4.67
2022-12-22T15:48:35.975Z,4.66
2022-12-22T15:51:06.495Z,4.52
2022-12-22T15:53:33.428Z,4.52
2022-12-22T15:56:02.417Z,4.43
2022-12-22T15:58:31.437Z,4.53
2022-12-22T16:00:58.149Z,4.63
2022-12-22T16:03:24.972Z,4.67
2022-12-22T16:05:59.638Z,4.70
2022-12-22T16:08:30.643Z,4.70
2022-12-22T16:11:07.488Z,4.77
2022-12-22T16:13:40.857Z,4.54
2022-12-22T16:16:08.556Z,4.43
2022-12-22T16:18:37.686Z,4.55
2022-12-22T16:21:12.145Z,4.35
2022-12-22T16:23:43.690Z,4.17
2022-12-22T16:26:12.106Z,4.13
2022-12-22T16:28:41.881Z,4.07
2022-12-22T16:31:11.790Z,4.10
2022-12-22T16:33:38.581Z,4.11
2022-12-22T16:36:07.321Z,4.06
2022-12-22T16:38:35.917Z,4.08
2022-12-22T16:41:03.704Z,4.06
2022-12-22T16:46:22.584Z,4.13
2022-12-22T16:48:53.448Z,4.14
2022-12-22T16:51:23.299Z,4.21
2022-12-22T16:53:53.735Z,4.31
2022-12-22T16:56:26.683Z,4.37
2022-12-22T16:58:53.472Z,4.54
2022-12-22T17:01:36.473Z,4.67
2022-12-22T17:04:10.142Z,4.81
2022-12-22T17:06:41.575Z,4.99
2022-12-22T17:09:13.676Z,5.05
2022-12-22T17:11:40.335Z,5.18
2022-12-22T17:14:08.203Z,5.26
2022-12-22T17:16:35.021Z,5.34
2022-12-22T17:19:04.111Z,5.28
2022-12-22T17:21:30.809Z,5.20
2022-12-22T17:24:03.853Z,5.26
2022-12-22T17:26:31.416Z,5.29
2022-12-22T17:28:58.761Z,5.26
2022-12-22T17:31:26.416Z,5.27
2022-12-22T17:33:56.673Z,5.34
2022-12-22T17:36:33.681Z,5.57
2022-12-22T17:39:00.404Z,5.77
2022-12-22T17:41:27.096Z,5.95
2022-12-22T17:43:53.787Z,6.10
2022-12-22T17:46:20.813Z,6.23
2022-12-22T17:48:47.789Z,6.25
2022-12-22T17:51:15.754Z,6.34
2022-12-22T17:53:43.553Z,6.43
2022-12-22T17:56:19.685Z,6.48
2022-12-22T17:58:46.718Z,6.31
2022-12-22T18:01:26.147Z,6.21
2022-12-22T18:03:55.703Z,6.29
2022-12-22T18:06:24.146Z,6.43
2022-12-22T18:08:56.243Z,6.47
2022-12-22T18:11:23.099Z,6.54
2022-12-22T18:13:52.533Z,6.53
2022-12-22T18:16:20.559Z,6.44
2022-12-22T18:18:49.662Z,6.35
2022-12-22T18:21:19.640Z,6.35
2022-12-22T18:23:50.738Z,6.20
2022-12-22T18:26:22.273Z,6.25
2022-12-22T18:28:49.142Z,6.26
2022-12-22T18:31:20.718Z,6.07
2022-12-22T18:33:47.526Z,6.02
2022-12-22T18:36:18.308Z,6.12
2022-12-22T18:38:45.343Z,6.05
2022-12-22T18:41:13.344Z,5.83
2022-12-22T18:43:39.931Z,5.78
2022-12-22T18:46:08.805Z,5.69
2022-12-22T18:48:35.380Z,5.71
2022-12-22T18:51:02.219Z,5.63
2022-12-22T18:53:29.744Z,5.70
2022-12-22T18:55:59.692Z,5.65
2022-12-22T18:58:29.532Z,5.65
2022-12-22T19:00:56.893Z,5.61
2022-12-22T19:03:29.167Z,5.60
2022-12-22T19:05:56.303Z,5.63
2022-12-22T19:08:24.380Z,5.67
2022-12-22T19:11:14.899Z,5.72
2022-12-22T19:13:43.282Z,5.74
2022-12-22T19:16:12.628Z,5.71
2022-12-22T19:18:41.942Z,5.67
2022-12-22T19:21:15.430Z,5.65
2022-12-22T19:23:44.986Z,5.63
2022-12-22T19:26:22.982Z,5.71
2022-12-22T19:28:52.600Z,5.78
2022-12-22T19:31:21.512Z,5.79
2022-12-22T19:33:50.911Z,5.77
2022-12-22T19:36:25.659Z,5.92
2022-12-22T19:39:04.129Z,5.93
2022-12-22T19:41:34.841Z,5.95
2022-12-22T19:44:01.723Z,5.97
2022-12-22T19:46:29.286Z,5.82
2022-12-22T19:48:57.264Z,5.76
2022-12-22T19:51:24.034Z,5.71
2022-12-22T19:53:50.809Z,5.62
2022-12-22T19:56:20.480Z,5.51
2022-12-22T19:58:47.220Z,5.44
2022-12-22T20:01:13.917Z,5.37
2022-12-22T20:03:40.857Z,5.32
2022-12-22T20:06:10.042Z,5.32
2022-12-22T20:08:38.886Z,5.31
2022-12-22T20:11:10.884Z,5.33
2022-12-22T20:13:37.602Z,5.29
2022-12-22T20:16:06.919Z,5.27
2022-12-22T20:18:36.526Z,5.30
2022-12-22T20:21:04.229Z,5.30
2022-12-22T20:23:33.162Z,5.23
2022-12-22T20:26:02.711Z,5.07
2022-12-22T20:28:30.679Z,4.99
2022-12-22T20:31:02.663Z,5.03
2022-12-22T20:33:29.585Z,4.95
2022-12-22T20:35:59.929Z,5.00
2022-12-22T20:38:27.659Z,5.05
2022-12-22T20:40:54.900Z,5.14
2022-12-22T20:43:25.883Z,5.13
2022-12-22T20:45:53.362Z,5.17
2022-12-22T20:48:23.096Z,5.17
2022-12-22T20:50:50.209Z,5.22
2022-12-22T20:53:18.566Z,5.22
2022-12-22T20:55:46.300Z,5.31
2022-12-22T20:58:20.127Z,5.24
2022-12-22T21:00:46.832Z,5.29
2022-12-22T21:03:15.786Z,5.27
2022-12-22T21:05:42.550Z,5.32
2022-12-22T21:08:20.239Z,5.28
2022-12-22T21:10:53.143Z,5.34
2022-12-22T21:13:22.628Z,5.31
2022-12-22T21:15:49.971Z,5.31
2022-12-22T21:18:20.616Z,5.33
2022-12-22T21:20:50.100Z,5.39
2022-12-22T21:23:16.810Z,5.48
2022-12-22T21:25:46.674Z,5.56
2022-12-22T21:28:24.144Z,5.71
2022-12-22T21:30:50.792Z,5.83
2022-12-22T21:33:17.557Z,5.86
2022-12-22T21:35:44.114Z,5.89
2022-12-22T21:38:15.524Z,5.88
2022-12-22T21:40:42.315Z,6.00
2022-12-22T21:43:11.506Z,6.11
2022-12-22T21:45:42.704Z,6.17
2022-12-22T21:48:19.138Z,6.18
2022-12-22T21:50:50.346Z,6.23
2022-12-22T21:53:22.002Z,6.21
2022-12-22T21:55:50.246Z,6.18
2022-12-22T21:58:18.329Z,6.34
2022-12-22T22:00:46.635Z,6.43
2022-12-22T22:03:13.542Z,6.44
2022-12-22T22:05:40.205Z,6.52
2022-12-22T22:08:07.594Z,6.66
2022-12-22T22:10:38.301Z,6.52
2022-12-22T22:13:07.286Z,6.48
2022-12-22T22:15:36.321Z,6.48
2022-12-22T22:18:07.270Z,6.58
2022-12-22T22:20:34.749Z,6.74
2022-12-22T22:23:01.951Z,6.80
2022-12-22T22:25:28.601Z,6.83
2022-12-22T22:28:00.516Z,6.88
2022-12-22T22:30:27.268Z,7.00
2022-12-22T22:32:56.740Z,7.10
2022-12-22T22:35:26.171Z,7.17
2022-12-22T22:37:52.825Z,7.12
2022-12-22T22:40:20.701Z,7.16
2022-12-22T22:42:50.638Z,7.05
2022-12-22T22:45:28.080Z,7.10
2022-12-22T22:47:54.907Z,7.04
2022-12-22T22:50:24.475Z,7.09
2022-12-22T22:52:51.144Z,7.13
2022-12-22T22:55:20.314Z,7.18
2022-12-22T22:57:47.091Z,7.27
2022-12-22T23:00:14.859Z,7.24
2022-12-22T23:02:41.949Z,7.28
2022-12-22T23:05:09.138Z,7.23
2022-12-22T23:07:38.662Z,7.10
2022-12-22T23:10:07.914Z,7.11
2022-12-22T23:12:34.532Z,7.08
2022-12-22T23:15:01.956Z,7.14
2022-12-22T23:17:31.044Z,7.20
2022-12-22T23:20:00.339Z,7.03
2022-12-22T23:22:29.249Z,6.90
2022-12-22T23:24:58.808Z,6.92
2022-12-22T23:27:26.009Z,6.99
2022-12-22T23:29:52.633Z,7.04
2022-12-22T23:32:21.374Z,7.09
2022-12-22T23:34:50.673Z,7.18
2022-12-22T23:37:22.834Z,7.27
2022-12-22T23:39:49.423Z,7.37
2022-12-22T23:42:15.985Z,7.34
2022-12-22T23:44:42.586Z,7.03
2022-12-22T23:47:11.782Z,6.94
2022-12-22T23:49:41.554Z,7.07
2022-12-22T23:52:13.556Z,7.17
2022-12-22T23:54:40.183Z,7.20
2022-12-22T23:57:06.706Z,7.19
2022-12-22T23:59:35.630Z,7.29
